Time;durP1;ratioP1;P1;durP2;ratioP2;P2;SDS_P1;SDS_P2;PMS_P1;PMS_P2;Temp;Humidity;BMP_temperature;BMP_pressure;BME280_temperature;BME280_humidity;BME280_pressure;Samples;Min_cycle;Max_cycle;Signal;HPM_P1;HPM_P2
2023/03/13 00:00:46;;;;;;;;;3.67;2.00;;;;;;;;5051516;28;9496;-74
2023/03/13 00:03:11;;;;;;;;;2.00;2.00;;;;;;;;5051799;28;8816;-75
2023/03/13 00:05:36;;;;;;;;;2.33;1.00;;;;;;;;5051687;28;8911;-75
2023/03/13 00:08:01;;;;;;;;;2.33;2.33;;;;;;;;5051472;28;8913;-74
2023/03/13 00:10:27;;;;;;;;;2.00;2.00;;;;;;;;5051359;28;8792;-75
2023/03/13 00:12:52;;;;;;;;;2.00;2.00;;;;;;;;5051847;28;8899;-75
2023/03/13 00:15:17;;;;;;;;;2.00;2.00;;;;;;;;5051563;28;8797;-75
2023/03/13 00:17:42;;;;;;;;;1.33;1.33;;;;;;;;5051535;28;8804;-75
2023/03/13 00:20:08;;;;;;;;;2.00;2.00;;;;;;;;5058670;28;8862;-75
2023/03/13 00:22:33;;;;;;;;;3.00;2.00;;;;;;;;5071328;28;9612;-74
2023/03/13 00:24:58;;;;;;;;;2.67;2.67;;;;;;;;5071919;28;8802;-74
2023/03/13 00:27:24;;;;;;;;;1.00;1.00;;;;;;;;5070737;28;8830;-75
2023/03/13 00:29:49;;;;;;;;;4.00;2.00;;;;;;;;5072082;28;8817;-74
2023/03/13 00:32:14;;;;;;;;;2.00;2.00;;;;;;;;5069764;28;8928;-74
2023/03/13 00:34:40;;;;;;;;;1.00;1.00;;;;;;;;5071577;28;8840;-74
2023/03/13 00:37:05;;;;;;;;;2.00;2.00;;;;;;;;5071295;28;8833;-74
2023/03/13 00:39:30;;;;;;;;;1.00;1.00;;;;;;;;5069748;28;8814;-74
2023/03/13 00:41:55;;;;;;;;;4.00;2.00;;;;;;;;5070242;28;8896;-74
2023/03/13 00:44:20;;;;;;;;;2.00;2.00;;;;;;;;5070757;28;8813;-74
2023/03/13 00:46:46;;;;;;;;;1.33;1.33;;;;;;;;5069712;28;8841;-76
2023/03/13 00:49:11;;;;;;;;;2.00;2.00;;;;;;;;5071223;28;8797;-73
2023/03/13 00:51:36;;;;;;;;;2.00;1.67;;;;;;;;5070807;28;8814;-74
2023/03/13 00:54:02;;;;;;;;;2.33;1.67;;;;;;;;5069499;28;8802;-74
2023/03/13 00:56:28;;;;;;;;;1.67;1.67;;;;;;;;5069540;28;8801;-75
2023/03/13 00:58:53;;;;;;;;;1.00;1.00;;;;;;;;5071047;28;9569;-74
2023/03/13 01:01:23;;;;;;;;;1.00;1.00;;;;;;;;5070762;28;8810;-74
2023/03/13 01:03:50;;;;;;;;;1.00;1.00;;;;;;;;5070812;28;8809;-74
2023/03/13 01:06:16;;;;;;;;;2.00;2.00;;;;;;;;5070242;28;9503;-74
2023/03/13 01:08:41;;;;;;;;;1.33;1.00;;;;;;;;5069477;28;9377;-74
2023/03/13 01:11:08;;;;;;;;;2.67;1.00;;;;;;;;5070808;28;9416;-75
2023/03/13 01:13:34;;;;;;;;;4.00;3.00;;;;;;;;5070813;28;8794;-76
2023/03/13 01:16:06;;;;;;;;;1.00;1.00;;;;;;;;5070603;28;9338;-74
2023/03/13 01:18:35;;;;;;;;;1.00;1.00;;;;;;;;5069133;28;8825;-73
2023/03/13 01:21:01;;;;;;;;;2.00;2.00;;;;;;;;5070219;28;9479;-73
2023/03/13 01:23:26;;;;;;;;;2.00;2.00;;;;;;;;5069291;28;9661;-74
2023/03/13 01:25:53;;;;;;;;;3.00;1.00;;;;;;;;5070707;28;8798;-74
2023/03/13 01:28:18;;;;;;;;;1.00;1.00;;;;;;;;5070264;28;8798;-74
2023/03/13 01:30:43;;;;;;;;;2.00;2.00;;;;;;;;5070711;28;9523;-74
2023/03/13 01:33:08;;;;;;;;;2.00;2.00;;;;;;;;5070842;28;8810;-73
2023/03/13 01:35:33;;;;;;;;;3.00;2.00;;;;;;;;5070269;28;8876;-73
2023/03/13 01:37:59;;;;;;;;;3.75;3.75;;;;;;;;5070566;28;9586;-75
2023/03/13 01:40:24;;;;;;;;;3.00;3.00;;;;;;;;5070411;28;8790;-75
2023/03/13 01:42:49;;;;;;;;;2.00;2.00;;;;;;;;5069300;28;8806;-75
2023/03/13 01:45:33;;;;;;;;;2.00;2.00;;;;;;;;5070484;28;8774;-75
2023/03/13 01:47:58;;;;;;;;;4.00;3.00;;;;;;;;5070334;28;8813;-75
2023/03/13 01:50:24;;;;;;;;;4.00;2.00;;;;;;;;5070099;28;9508;-76
2023/03/13 01:52:49;;;;;;;;;2.00;2.00;;;;;;;;5070226;28;8832;-75
2023/03/13 01:55:15;;;;;;;;;4.00;3.00;;;;;;;;5073398;28;8800;-75
2023/03/13 01:57:46;;;;;;;;;3.00;2.00;;;;;;;;5073619;28;8778;-76
2023/03/13 02:00:18;;;;;;;;;4.00;2.67;;;;;;;;5073452;28;9469;-75
2023/03/13 02:02:49;;;;;;;;;2.67;2.67;;;;;;;;5072137;28;9553;-75
2023/03/13 02:05:15;;;;;;;;;5.00;3.67;;;;;;;;5073511;28;9546;-75
2023/03/13 02:07:47;;;;;;;;;2.00;2.00;;;;;;;;5073262;28;9505;-76
2023/03/13 02:10:14;;;;;;;;;6.00;3.00;;;;;;;;5073485;28;9527;-76
2023/03/13 02:12:39;;;;;;;;;3.75;3.75;;;;;;;;5073498;28;9718;-75
2023/03/13 02:15:15;;;;;;;;;3.33;2.00;;;;;;;;5073233;28;9633;-73
2023/03/13 02:17:41;;;;;;;;;2.00;2.00;;;;;;;;5073138;28;8798;-76
2023/03/13 02:20:07;;;;;;;;;3.75;2.25;;;;;;;;5072674;28;9771;-75
2023/03/13 02:22:39;;;;;;;;;1.25;1.25;;;;;;;;5073272;28;9630;-76
2023/03/13 02:25:16;;;;;;;;;4.00;3.00;;;;;;;;5073314;28;9694;-76
2023/03/13 02:27:42;;;;;;;;;2.00;2.00;;;;;;;;5072970;28;9428;-76
2023/03/13 02:30:08;;;;;;;;;1.33;1.33;;;;;;;;5073265;28;9407;-76
2023/03/13 02:32:34;;;;;;;;;2.33;2.33;;;;;;;;5073027;28;9472;-76
2023/03/13 02:40:40;;;;;;;;;4.00;3.00;;;;;;;;5301662;22;9499;-80
2023/03/13 02:43:11;;;;;;;;;2.67;2.67;;;;;;;;5090010;28;9500;-80
2023/03/13 02:45:36;;;;;;;;;4.33;4.33;;;;;;;;5091910;28;10257;-80
2023/03/13 02:48:01;;;;;;;;;4.50;2.00;;;;;;;;5091488;28;9420;-80
2023/03/13 02:50:27;;;;;;;;;3.00;3.00;;;;;;;;5091660;28;8889;-80
2023/03/13 02:52:54;;;;;;;;;3.00;3.00;;;;;;;;5092051;28;8775;-81
2023/03/13 02:55:32;;;;;;;;;3.75;3.50;;;;;;;;5091933;28;9581;-80
2023/03/13 02:57:57;;;;;;;;;9.00;5.00;;;;;;;;5091636;28;9731;-81
2023/03/13 03:00:26;;;;;;;;;4.00;3.00;;;;;;;;5092055;28;9581;-81
2023/03/13 03:02:52;;;;;;;;;3.00;2.33;;;;;;;;5091870;28;8795;-81
2023/03/13 03:05:18;;;;;;;;;3.33;2.00;;;;;;;;5091467;28;9395;-81
2023/03/13 03:07:43;;;;;;;;;3.67;1.00;;;;;;;;5092314;28;9436;-81
2023/03/13 03:10:09;;;;;;;;;4.75;3.50;;;;;;;;5091832;28;8864;-81
2023/03/13 03:12:34;;;;;;;;;5.00;4.00;;;;;;;;5091324;28;8783;-81
2023/03/13 03:14:59;;;;;;;;;3.75;3.75;;;;;;;;5091673;28;8854;-81
2023/03/13 03:17:25;;;;;;;;;6.75;2.50;;;;;;;;5091128;28;8845;-82
2023/03/13 03:19:50;;;;;;;;;4.00;3.00;;;;;;;;5091669;28;8796;-80
2023/03/13 03:22:15;;;;;;;;;2.67;2.00;;;;;;;;5091634;28;8814;-80
2023/03/13 03:24:40;;;;;;;;;2.00;2.00;;;;;;;;5091636;28;8853;-81
2023/03/13 03:27:06;;;;;;;;;3.33;3.33;;;;;;;;5091486;28;8928;-81
2023/03/13 03:29:31;;;;;;;;;3.67;2.33;;;;;;;;5091475;28;8908;-80
2023/03/13 03:31:56;;;;;;;;;1.33;1.33;;;;;;;;5100628;22;8960;-72
2023/03/13 03:34:21;;;;;;;;;4.00;4.00;;;;;;;;5110574;28;8896;-71
2023/03/13 03:36:47;;;;;;;;;4.00;4.00;;;;;;;;5111192;28;8871;-72
2023/03/13 03:39:12;;;;;;;;;3.67;2.67;;;;;;;;5111589;27;8784;-71
2023/03/13 03:41:37;;;;;;;;;5.00;3.33;;;;;;;;5110694;27;9621;-72
2023/03/13 03:44:03;;;;;;;;;4.67;3.67;;;;;;;;5111518;28;8788;-72
2023/03/13 03:46:28;;;;;;;;;8.00;5.00;;;;;;;;5111572;27;8785;-71
2023/03/13 03:48:53;;;;;;;;;5.00;5.00;;;;;;;;5111264;28;9574;-72
2023/03/13 03:51:19;;;;;;;;;3.67;3.00;;;;;;;;5111679;27;8769;-72
2023/03/13 03:53:44;;;;;;;;;3.00;2.00;;;;;;;;5111257;27;8773;-72
2023/03/13 03:56:09;;;;;;;;;4.00;4.00;;;;;;;;5111329;28;8789;-72
2023/03/13 03:58:34;;;;;;;;;4.00;3.00;;;;;;;;5111214;28;8769;-72
2023/03/13 04:00:59;;;;;;;;;2.00;2.00;;;;;;;;5110962;28;8873;-72
2023/03/13 04:03:25;;;;;;;;;3.00;3.00;;;;;;;;5110730;28;9562;-72
2023/03/13 04:05:50;;;;;;;;;4.25;3.25;;;;;;;;5111224;27;8789;-72
2023/03/13 04:08:15;;;;;;;;;4.00;3.00;;;;;;;;5110920;27;8813;-72
2023/03/13 04:10:41;;;;;;;;;2.75;2.75;;;;;;;;5110965;27;8812;-72
2023/03/13 04:13:06;;;;;;;;;3.33;3.00;;;;;;;;5111186;28;8761;-72
2023/03/13 04:15:31;;;;;;;;;5.25;4.00;;;;;;;;5110298;28;8894;-72
2023/03/13 04:17:56;;;;;;;;;5.00;4.00;;;;;;;;5110721;28;8769;-72
2023/03/13 04:20:22;;;;;;;;;2.25;2.25;;;;;;;;5110892;28;8781;-72
2023/03/13 04:22:47;;;;;;;;;5.25;3.50;;;;;;;;5110753;28;8792;-73
2023/03/13 04:25:12;;;;;;;;;5.75;4.00;;;;;;;;5110476;28;8780;-72
2023/03/13 04:27:37;;;;;;;;;3.25;3.25;;;;;;;;5110909;28;8839;-73
2023/03/13 04:30:03;;;;;;;;;4.50;3.00;;;;;;;;5110615;28;8803;-72
2023/03/13 04:32:28;;;;;;;;;2.00;2.00;;;;;;;;5109320;28;8808;-73
2023/03/13 04:34:53;;;;;;;;;4.50;4.00;;;;;;;;5111245;28;8831;-72
2023/03/13 04:37:19;;;;;;;;;2.50;2.50;;;;;;;;5110405;28;8907;-73
2023/03/13 04:39:44;;;;;;;;;3.00;3.00;;;;;;;;5108940;28;8785;-72
2023/03/13 04:42:10;;;;;;;;;6.00;5.00;;;;;;;;5110411;27;8789;-72
2023/03/13 04:44:35;;;;;;;;;4.00;2.67;;;;;;;;5110680;27;8749;-72
2023/03/13 04:47:01;;;;;;;;;4.00;4.00;;;;;;;;5110569;28;9564;-72
2023/03/13 04:49:26;;;;;;;;;5.00;4.00;;;;;;;;5110762;28;8805;-72
2023/03/13 04:51:51;;;;;;;;;4.75;4.75;;;;;;;;5110923;28;8785;-72
2023/03/13 04:54:16;;;;;;;;;5.00;5.00;;;;;;;;5110524;28;8788;-72
2023/03/13 04:56:41;;;;;;;;;4.75;3.75;;;;;;;;5110400;28;8801;-71
2023/03/13 04:59:07;;;;;;;;;4.00;4.00;;;;;;;;5110473;28;8796;-72
2023/03/13 05:01:32;;;;;;;;;4.00;3.00;;;;;;;;5110584;28;8813;-73
2023/03/13 05:03:57;;;;;;;;;5.67;4.67;;;;;;;;5110407;28;8789;-72
2023/03/13 05:06:22;;;;;;;;;5.33;3.33;;;;;;;;5110166;28;8961;-72
2023/03/13 05:08:47;;;;;;;;;6.67;3.33;;;;;;;;5110199;28;8971;-72
2023/03/13 05:11:13;;;;;;;;;6.33;4.00;;;;;;;;5108946;28;8873;-72
2023/03/13 05:13:38;;;;;;;;;3.00;3.00;;;;;;;;5110631;28;8777;-72
2023/03/13 05:16:03;;;;;;;;;7.00;6.00;;;;;;;;5110051;28;8882;-73
2023/03/13 05:18:29;;;;;;;;;5.25;4.25;;;;;;;;5110084;27;8835;-72
2023/03/13 05:20:54;;;;;;;;;4.00;4.00;;;;;;;;5110006;27;8788;-73
2023/03/13 05:23:19;;;;;;;;;6.00;4.75;;;;;;;;5109603;28;8777;-72
2023/03/13 05:25:44;;;;;;;;;4.00;4.00;;;;;;;;5091611;28;8795;-72
2023/03/13 05:28:10;;;;;;;;;3.50;3.50;;;;;;;;5109769;28;9563;-73
2023/03/13 05:30:35;;;;;;;;;5.00;4.00;;;;;;;;5113616;28;8781;-73
2023/03/13 05:33:00;;;;;;;;;5.25;5.25;;;;;;;;5113668;28;8793;-72
2023/03/13 05:35:25;;;;;;;;;4.75;4.00;;;;;;;;5113468;28;8804;-73
2023/03/13 05:37:51;;;;;;;;;7.50;6.75;;;;;;;;5112747;28;8776;-73
2023/03/13 05:40:16;;;;;;;;;5.00;4.00;;;;;;;;5112193;28;8895;-72
2023/03/13 05:42:41;;;;;;;;;4.50;3.25;;;;;;;;5113186;27;8895;-72
2023/03/13 05:45:08;;;;;;;;;4.75;4.50;;;;;;;;5113299;28;8908;-72
2023/03/13 05:47:33;;;;;;;;;5.00;5.00;;;;;;;;5112860;27;8920;-73
2023/03/13 05:49:58;;;;;;;;;8.00;6.75;;;;;;;;5112482;27;9513;-73
2023/03/13 05:52:23;;;;;;;;;7.00;5.75;;;;;;;;5112748;28;8838;-73
2023/03/13 05:54:49;;;;;;;;;3.00;3.00;;;;;;;;5113184;28;8785;-72
2023/03/13 05:57:14;;;;;;;;;7.50;5.25;;;;;;;;5113104;28;8785;-73
2023/03/13 05:59:39;;;;;;;;;6.00;5.00;;;;;;;;5112745;28;8777;-72
2023/03/13 06:02:04;;;;;;;;;6.33;4.33;;;;;;;;5113110;28;8769;-73
2023/03/13 06:04:30;;;;;;;;;3.50;3.50;;;;;;;;5113061;28;8789;-73
2023/03/13 06:06:55;;;;;;;;;2.50;2.50;;;;;;;;5112584;27;8809;-72
2023/03/13 06:09:20;;;;;;;;;6.00;5.00;;;;;;;;5112678;28;8793;-73
2023/03/13 06:11:45;;;;;;;;;5.75;3.75;;;;;;;;5111110;28;8785;-71
2023/03/13 06:14:10;;;;;;;;;7.50;6.00;;;;;;;;5095280;28;8800;-72
2023/03/13 06:16:36;;;;;;;;;6.25;5.75;;;;;;;;5113322;28;8789;-72
2023/03/13 06:19:01;;;;;;;;;6.50;5.00;;;;;;;;5113712;28;8796;-72
2023/03/13 06:21:26;;;;;;;;;6.50;5.50;;;;;;;;5113969;28;8772;-72
2023/03/13 06:23:53;;;;;;;;;4.33;3.67;;;;;;;;5113758;27;8845;-71
2023/03/13 06:26:18;;;;;;;;;4.25;4.25;;;;;;;;5113622;27;8867;-70
2023/03/13 06:28:43;;;;;;;;;8.75;5.00;;;;;;;;5113549;28;9696;-70
2023/03/13 06:31:09;;;;;;;;;2.25;2.25;;;;;;;;5113714;28;8777;-69
2023/03/13 06:33:34;;;;;;;;;4.00;4.00;;;;;;;;5104980;27;8919;-69
2023/03/13 06:36:00;;;;;;;;;4.75;4.00;;;;;;;;5093066;28;8784;-70
2023/03/13 06:38:25;;;;;;;;;4.00;4.00;;;;;;;;5093003;28;8772;-71
2023/03/13 06:40:51;;;;;;;;;4.00;4.00;;;;;;;;5091970;28;8775;-71
2023/03/13 06:43:16;;;;;;;;;4.25;4.25;;;;;;;;5111369;27;8813;-71
2023/03/13 06:45:41;;;;;;;;;4.00;4.00;;;;;;;;5113202;27;8781;-72
2023/03/13 06:48:06;;;;;;;;;6.50;5.00;;;;;;;;5112836;28;9547;-72
2023/03/13 06:50:32;;;;;;;;;5.00;5.00;;;;;;;;5107334;28;8812;-72
2023/03/13 06:52:57;;;;;;;;;4.00;4.00;;;;;;;;5093089;28;8794;-73
2023/03/13 06:55:23;;;;;;;;;5.25;5.25;;;;;;;;5092648;28;8784;-72
2023/03/13 06:57:48;;;;;;;;;6.00;3.00;;;;;;;;5092609;28;9557;-72
2023/03/13 07:00:14;;;;;;;;;4.33;3.67;;;;;;;;5092595;28;8795;-72
2023/03/13 07:02:39;;;;;;;;;2.33;2.33;;;;;;;;5093050;28;9541;-72
2023/03/13 07:05:05;;;;;;;;;7.00;3.00;;;;;;;;5092854;28;8784;-72
2023/03/13 07:07:31;;;;;;;;;4.50;4.25;;;;;;;;5106442;28;8805;-72
2023/03/13 07:09:57;;;;;;;;;5.00;4.75;;;;;;;;5112891;27;8773;-72
2023/03/13 07:12:22;;;;;;;;;6.00;5.00;;;;;;;;5113535;27;9611;-72
2023/03/13 07:14:47;;;;;;;;;4.75;4.75;;;;;;;;5113043;28;8804;-72
2023/03/13 07:17:12;;;;;;;;;4.75;4.75;;;;;;;;5112483;28;8785;-71
2023/03/13 07:19:38;;;;;;;;;3.00;3.00;;;;;;;;5091203;28;8929;-72
2023/03/13 07:22:03;;;;;;;;;2.67;2.67;;;;;;;;5092449;28;8795;-72
2023/03/13 07:24:28;;;;;;;;;4.00;4.00;;;;;;;;5108188;28;8821;-72
2023/03/13 07:26:53;;;;;;;;;5.00;5.00;;;;;;;;5092626;28;8831;-72
2023/03/13 07:29:19;;;;;;;;;3.00;3.00;;;;;;;;5092256;28;8960;-72
2023/03/13 07:31:44;;;;;;;;;2.67;1.33;;;;;;;;5092178;28;8822;-72
2023/03/13 07:34:09;;;;;;;;;4.00;2.50;;;;;;;;5092681;28;8775;-73
2023/03/13 07:36:35;;;;;;;;;2.75;2.75;;;;;;;;5092588;28;8810;-72
2023/03/13 07:39:00;;;;;;;;;3.00;3.00;;;;;;;;5092606;28;8775;-72
2023/03/13 07:41:25;;;;;;;;;4.00;3.00;;;;;;;;5095498;27;8843;-72
2023/03/13 07:43:50;;;;;;;;;3.00;3.00;;;;;;;;5112434;28;8805;-72
2023/03/13 07:46:17;;;;;;;;;3.00;2.00;;;;;;;;5111613;28;8777;-72
2023/03/13 07:48:43;;;;;;;;;4.33;3.33;;;;;;;;5111212;28;8927;-73
2023/03/13 07:51:26;;;;;;;;;3.75;3.75;;;;;;;;5111534;27;9478;-73
2023/03/13 07:53:52;;;;;;;;;3.00;3.00;;;;;;;;5112480;27;8769;-73
2023/03/13 07:56:18;;;;;;;;;4.75;4.75;;;;;;;;5110177;28;9633;-73
2023/03/13 07:58:44;;;;;;;;;5.25;4.00;;;;;;;;5111843;27;8787;-73
2023/03/13 08:01:12;;;;;;;;;4.00;4.00;;;;;;;;5111788;28;9537;-74
2023/03/13 08:03:37;;;;;;;;;5.00;3.50;;;;;;;;5112178;28;8882;-72
2023/03/13 08:06:07;;;;;;;;;3.75;3.00;;;;;;;;5112407;27;9579;-73
2023/03/13 08:08:32;;;;;;;;;6.00;4.00;;;;;;;;5112397;27;8793;-72
2023/03/13 08:11:05;;;;;;;;;5.00;5.00;;;;;;;;5112341;28;10290;-72
2023/03/13 08:13:31;;;;;;;;;4.00;4.00;;;;;;;;5112418;27;8757;-72
2023/03/13 08:16:09;;;;;;;;;3.00;3.00;;;;;;;;5111842;27;9605;-71
2023/03/13 08:18:35;;;;;;;;;5.00;3.67;;;;;;;;5112214;27;9796;-72
2023/03/13 08:21:05;;;;;;;;;3.67;3.00;;;;;;;;5094030;27;9603;-73
2023/03/13 08:23:31;;;;;;;;;4.00;4.00;;;;;;;;5110582;27;9801;-72
2023/03/13 08:26:00;;;;;;;;;4.75;3.75;;;;;;;;5109022;27;9495;-72
2023/03/13 08:28:25;;;;;;;;;4.00;4.00;;;;;;;;5110446;27;8909;-72
2023/03/13 08:30:50;;;;;;;;;1.00;1.00;;;;;;;;5110194;27;10586;-72
2023/03/13 08:33:16;;;;;;;;;4.00;4.00;;;;;;;;5110293;27;8833;-72
2023/03/13 08:35:41;;;;;;;;;4.00;4.00;;;;;;;;5108637;27;8825;-72
2023/03/13 08:38:07;;;;;;;;;4.00;4.00;;;;;;;;5109442;27;8826;-71
2023/03/13 08:40:32;;;;;;;;;3.00;3.00;;;;;;;;5109262;27;8824;-72
2023/03/13 08:42:57;;;;;;;;;0.00;0.00;;;;;;;;5122766;27;8775;-71
2023/03/13 08:45:22;;;;;;;;;6.00;5.00;;;;;;;;5113231;27;8814;-72
2023/03/13 08:47:50;;;;;;;;;6.50;3.25;;;;;;;;5119736;27;8913;-72
2023/03/13 08:50:19;;;;;;;;;2.25;2.25;;;;;;;;5124908;27;8767;-73
2023/03/13 08:52:44;;;;;;;;;3.00;3.00;;;;;;;;5122934;27;9622;-74
2023/03/13 08:55:10;;;;;;;;;3.00;3.00;;;;;;;;5109752;27;9582;-73
2023/03/13 08:57:35;;;;;;;;;3.00;3.00;;;;;;;;5110504;27;9535;-71
2023/03/13 09:00:00;;;;;;;;;3.00;3.00;;;;;;;;5109118;27;8789;-74
2023/03/13 09:02:28;;;;;;;;;4.33;2.33;;;;;;;;5129281;27;9505;-73
2023/03/13 09:04:56;;;;;;;;;3.00;3.00;;;;;;;;5102289;27;8779;-73
2023/03/13 09:07:30;;;;;;;;;5.25;4.00;;;;;;;;5094725;28;9476;-72
2023/03/13 09:09:56;;;;;;;;;3.00;3.00;;;;;;;;5094452;28;10348;-73
2023/03/13 09:12:21;;;;;;;;;3.67;3.67;;;;;;;;5094748;28;9525;-72
2023/03/13 09:14:47;;;;;;;;;3.00;3.00;;;;;;;;5094323;28;8877;-72
2023/03/13 09:17:12;;;;;;;;;2.67;2.00;;;;;;;;5094351;28;8786;-73
2023/03/13 09:19:40;;;;;;;;;3.00;3.00;;;;;;;;5094798;28;8810;-73
2023/03/13 09:22:05;;;;;;;;;4.67;3.67;;;;;;;;5093914;28;8798;-73
2023/03/13 09:24:30;;;;;;;;;2.33;2.33;;;;;;;;5093931;28;9403;-73
2023/03/13 09:26:55;;;;;;;;;4.00;3.00;;;;;;;;5094266;28;9502;-73
2023/03/13 09:29:36;;;;;;;;;3.00;1.67;;;;;;;;5094336;28;8767;-72
2023/03/13 09:32:07;;;;;;;;;4.00;4.00;;;;;;;;5093916;28;8775;-73
2023/03/13 09:34:33;;;;;;;;;2.33;1.67;;;;;;;;5094280;28;9664;-70
2023/03/13 09:36:58;;;;;;;;;3.00;3.00;;;;;;;;5093902;28;10152;-70
2023/03/13 09:39:23;;;;;;;;;3.33;3.33;;;;;;;;5094113;28;8787;-70
2023/03/13 09:41:56;;;;;;;;;4.33;2.33;;;;;;;;5100334;27;8789;-70
2023/03/13 09:44:28;;;;;;;;;3.67;3.00;;;;;;;;5114285;27;8789;-69
2023/03/13 09:46:53;;;;;;;;;3.00;3.00;;;;;;;;5114326;27;9563;-69
2023/03/13 09:49:30;;;;;;;;;3.75;3.75;;;;;;;;5114009;28;9642;-69
2023/03/13 09:52:00;;;;;;;;;3.00;3.00;;;;;;;;5114160;27;8792;-70
2023/03/13 09:54:38;;;;;;;;;3.00;3.00;;;;;;;;5114147;27;9598;-70
2023/03/13 09:57:27;;;;;;;;;0.00;0.00;;;;;;;;5104549;27;9552;-70
2023/03/13 09:59:56;;;;;;;;;2.00;2.00;;;;;;;;5093662;28;9322;-71
2023/03/13 10:02:32;;;;;;;;;3.00;3.00;;;;;;;;5094108;28;9533;-70
2023/03/13 10:05:00;;;;;;;;;3.67;3.00;;;;;;;;5093666;28;9529;-70
2023/03/13 10:07:25;;;;;;;;;3.00;3.00;;;;;;;;5093528;28;9327;-70
2023/03/13 10:09:52;;;;;;;;;4.00;4.00;;;;;;;;5093532;28;9493;-69
2023/03/13 10:12:23;;;;;;;;;3.67;3.67;;;;;;;;5093307;28;8780;-69
2023/03/13 10:15:04;;;;;;;;;2.67;2.67;;;;;;;;5093159;28;9507;-69
2023/03/13 10:17:36;;;;;;;;;3.00;3.00;;;;;;;;5093616;28;9384;-70
2023/03/13 10:20:21;;;;;;;;;3.00;3.00;;;;;;;;5091964;28;9491;-70
2023/03/13 10:22:51;;;;;;;;;2.00;2.00;;;;;;;;5093520;28;9239;-71
2023/03/13 10:25:32;;;;;;;;;1.00;1.00;;;;;;;;5093284;28;9321;-71
2023/03/13 10:27:58;;;;;;;;;3.00;2.00;;;;;;;;5092994;28;9495;-70
2023/03/13 10:30:26;;;;;;;;;2.00;2.00;;;;;;;;5093187;28;9399;-70
2023/03/13 10:33:20;;;;;;;;;2.00;2.00;;;;;;;;5091990;28;9408;-69
2023/03/13 10:35:57;;;;;;;;;3.00;2.00;;;;;;;;5082737;28;9381;-70
2023/03/13 10:38:22;;;;;;;;;0.00;0.00;;;;;;;;5092846;28;9674;-69
2023/03/13 10:40:56;;;;;;;;;2.00;2.00;;;;;;;;5092775;28;10047;-70
2023/03/13 10:43:21;;;;;;;;;1.00;1.00;;;;;;;;5112471;27;8769;-70
2023/03/13 10:45:46;;;;;;;;;2.00;2.00;;;;;;;;5113428;27;9522;-70
2023/03/13 10:48:11;;;;;;;;;5.00;3.67;;;;;;;;5113232;28;8813;-70
2023/03/13 10:50:40;;;;;;;;;0.00;0.00;;;;;;;;5112068;28;8916;-70
2023/03/13 10:53:22;;;;;;;;;3.00;1.00;;;;;;;;5113334;27;8765;-71
2023/03/13 10:55:50;;;;;;;;;2.00;2.00;;;;;;;;5111736;28;9311;-70
2023/03/13 10:58:18;;;;;;;;;0.00;0.00;;;;;;;;5111833;28;9341;-71
2023/03/13 11:00:43;;;;;;;;;1.00;1.00;;;;;;;;5111857;28;9202;-72
2023/03/13 11:03:22;;;;;;;;;2.00;2.00;;;;;;;;5113170;28;9240;-72
2023/03/13 11:05:55;;;;;;;;;3.33;2.00;;;;;;;;5113300;27;8795;-69
2023/03/13 11:08:27;;;;;;;;;2.67;2.33;;;;;;;;5113024;27;9107;-71
2023/03/13 11:10:54;;;;;;;;;1.00;1.00;;;;;;;;5112926;27;9092;-71
2023/03/13 11:13:27;;;;;;;;;1.67;1.67;;;;;;;;5112969;27;9240;-70
2023/03/13 11:16:02;;;;;;;;;2.00;2.00;;;;;;;;5112897;27;9163;-70
2023/03/13 11:18:31;;;;;;;;;1.00;1.00;;;;;;;;5112458;27;9175;-70
2023/03/13 11:20:57;;;;;;;;;3.00;0.67;;;;;;;;5113176;27;9249;-69
2023/03/13 11:23:28;;;;;;;;;2.00;2.00;;;;;;;;5104288;27;9024;-69
2023/03/13 11:25:56;;;;;;;;;2.00;2.00;;;;;;;;5097511;27;8775;-69
2023/03/13 11:28:45;;;;;;;;;0.00;0.00;;;;;;;;5102829;27;9146;-70
2023/03/13 11:31:11;;;;;;;;;0.00;0.00;;;;;;;;5091953;28;9151;-69
2023/03/13 11:33:39;;;;;;;;;1.00;1.00;;;;;;;;5091695;28;9197;-69
2023/03/13 11:36:18;;;;;;;;;0.67;0.67;;;;;;;;5091473;28;8787;-69
2023/03/13 11:38:47;;;;;;;;;1.33;1.33;;;;;;;;5090773;28;9089;-69
2023/03/13 11:41:31;;;;;;;;;2.00;1.00;;;;;;;;5092753;28;9233;-69
2023/03/13 11:43:56;;;;;;;;;0.00;0.00;;;;;;;;5112062;28;9169;-68
2023/03/13 11:46:30;;;;;;;;;1.33;0.67;;;;;;;;5111940;28;9927;-70
2023/03/13 11:48:55;;;;;;;;;1.33;1.33;;;;;;;;5111331;27;8777;-70
2023/03/13 11:51:40;;;;;;;;;1.67;1.00;;;;;;;;5111466;28;9302;-69
2023/03/13 11:54:12;;;;;;;;;1.00;1.00;;;;;;;;5096316;28;8777;-70
2023/03/13 11:56:45;;;;;;;;;1.00;0.00;;;;;;;;5110969;28;9232;-70
2023/03/13 11:59:14;;;;;;;;;1.00;1.00;;;;;;;;5109856;28;9262;-69
2023/03/13 12:01:43;;;;;;;;;1.00;1.00;;;;;;;;5110914;28;9286;-70
2023/03/13 12:04:24;;;;;;;;;1.67;1.67;;;;;;;;5109939;28;9178;-70
2023/03/13 12:06:55;;;;;;;;;4.00;1.33;;;;;;;;5093148;27;9247;-69
2023/03/13 12:09:25;;;;;;;;;2.00;2.00;;;;;;;;5090715;28;9574;-71
2023/03/13 12:11:50;;;;;;;;;2.00;1.00;;;;;;;;5090650;28;9150;-71
2023/03/13 12:14:21;;;;;;;;;1.00;1.00;;;;;;;;5105907;28;9254;-69
2023/03/13 12:16:48;;;;;;;;;3.00;1.67;;;;;;;;5112124;27;8777;-68
2023/03/13 12:19:18;;;;;;;;;2.67;2.67;;;;;;;;5110323;28;9256;-70
2023/03/13 12:21:49;;;;;;;;;3.33;2.33;;;;;;;;5102112;27;9469;-70
2023/03/13 12:24:32;;;;;;;;;2.00;2.00;;;;;;;;5090952;28;9343;-70
2023/03/13 12:26:57;;;;;;;;;2.00;2.00;;;;;;;;5091293;28;9260;-70
2023/03/13 12:29:32;;;;;;;;;2.00;1.33;;;;;;;;5091420;28;9345;-70
2023/03/13 12:32:07;;;;;;;;;2.33;2.00;;;;;;;;5091588;28;8767;-71
2023/03/13 12:34:35;;;;;;;;;3.00;2.67;;;;;;;;5101390;28;9267;-71
2023/03/13 12:37:06;;;;;;;;;1.00;1.00;;;;;;;;5111683;27;9258;-70
2023/03/13 12:39:31;;;;;;;;;2.67;2.67;;;;;;;;5093195;27;9127;-71
2023/03/13 12:41:59;;;;;;;;;2.00;2.00;;;;;;;;5102290;27;9288;-71
2023/03/13 12:44:25;;;;;;;;;2.00;2.00;;;;;;;;5111812;28;8769;-71
2023/03/13 12:47:03;;;;;;;;;3.00;1.00;;;;;;;;5111359;28;9347;-70
2023/03/13 12:49:51;;;;;;;;;4.00;2.00;;;;;;;;5111429;27;8905;-70
2023/03/13 12:52:32;;;;;;;;;3.33;3.00;;;;;;;;5111136;27;9235;-70
2023/03/13 12:55:22;;;;;;;;;4.67;2.00;;;;;;;;5111574;28;9312;-70
2023/03/13 12:57:47;;;;;;;;;1.33;1.00;;;;;;;;5111615;27;9205;-70
2023/03/13 13:00:15;;;;;;;;;2.67;2.67;;;;;;;;5111260;28;9180;-70
2023/03/13 13:02:41;;;;;;;;;1.67;1.67;;;;;;;;5111274;27;8753;-70
2023/03/13 13:05:16;;;;;;;;;1.00;1.00;;;;;;;;5109868;28;9413;-70
2023/03/13 13:07:51;;;;;;;;;3.33;2.00;;;;;;;;5111236;27;9572;-70
2023/03/13 13:10:19;;;;;;;;;1.00;1.00;;;;;;;;5111678;27;9438;-70
2023/03/13 13:12:46;;;;;;;;;3.67;2.00;;;;;;;;5111043;28;9212;-70
2023/03/13 13:15:17;;;;;;;;;3.33;1.33;;;;;;;;5111362;27;9400;-71
2023/03/13 13:18:03;;;;;;;;;2.00;2.00;;;;;;;;5111478;28;9286;-71
2023/03/13 13:20:29;;;;;;;;;3.67;0.00;;;;;;;;5096730;28;9415;-70
2023/03/13 13:22:54;;;;;;;;;2.67;1.33;;;;;;;;5111004;27;9252;-70
2023/03/13 13:25:23;;;;;;;;;2.67;1.33;;;;;;;;5110986;27;9347;-70
2023/03/13 13:27:48;;;;;;;;;2.00;1.00;;;;;;;;5110711;28;9547;-70
2023/03/13 13:30:16;;;;;;;;;1.67;0.67;;;;;;;;5109909;28;9348;-72
2023/03/13 13:32:51;;;;;;;;;1.33;0.67;;;;;;;;5110918;28;8784;-70
2023/03/13 13:35:33;;;;;;;;;0.00;0.00;;;;;;;;5110672;27;9244;-70
2023/03/13 13:38:16;;;;;;;;;1.67;1.67;;;;;;;;5111012;27;9143;-69
2023/03/13 13:40:56;;;;;;;;;2.33;2.33;;;;;;;;5110800;28;9311;-70
2023/03/13 13:43:22;;;;;;;;;2.00;1.00;;;;;;;;5110879;27;9519;-69
2023/03/13 13:45:59;;;;;;;;;1.00;1.00;;;;;;;;5110854;28;9247;-71
2023/03/13 13:48:31;;;;;;;;;0.33;0.33;;;;;;;;5110821;27;10334;-70
2023/03/13 13:51:09;;;;;;;;;0.67;0.67;;;;;;;;5113084;27;8998;-71
2023/03/13 13:53:55;;;;;;;;;0.00;0.00;;;;;;;;5114488;27;9227;-69
2023/03/13 13:56:26;;;;;;;;;1.67;0.67;;;;;;;;5114568;27;9175;-69
2023/03/13 13:58:54;;;;;;;;;0.67;0.67;;;;;;;;5106508;28;9184;-70
2023/03/13 14:01:20;;;;;;;;;1.33;1.00;;;;;;;;5092295;28;9198;-70
2023/03/13 14:03:46;;;;;;;;;1.67;1.00;;;;;;;;5093629;28;9201;-70
2023/03/13 14:06:17;;;;;;;;;1.67;0.33;;;;;;;;5093516;28;8910;-70
2023/03/13 14:08:44;;;;;;;;;1.00;1.00;;;;;;;;5093653;28;9220;-70
2023/03/13 14:11:39;;;;;;;;;2.00;1.67;;;;;;;;5093500;28;9173;-69
2023/03/13 14:14:07;;;;;;;;;1.00;0.67;;;;;;;;5075730;28;9244;-70
2023/03/13 14:16:32;;;;;;;;;0.67;0.67;;;;;;;;5094110;28;9258;-70
2023/03/13 14:18:58;;;;;;;;;0.00;0.00;;;;;;;;5093341;28;9314;-70
2023/03/13 14:21:24;;;;;;;;;0.67;0.67;;;;;;;;5093600;28;8786;-70
2023/03/13 14:23:50;;;;;;;;;0.00;0.00;;;;;;;;5093210;28;8779;-70
2023/03/13 14:26:16;;;;;;;;;1.00;1.00;;;;;;;;5093610;28;9210;-70
2023/03/13 14:28:52;;;;;;;;;1.00;1.00;;;;;;;;5092395;28;8856;-70
2023/03/13 14:31:23;;;;;;;;;0.00;0.00;;;;;;;;5093186;28;9263;-70
2023/03/13 14:33:49;;;;;;;;;1.67;1.67;;;;;;;;5092724;28;9317;-71
2023/03/13 14:36:14;;;;;;;;;0.67;0.67;;;;;;;;5093291;28;9342;-71
2023/03/13 14:38:49;;;;;;;;;1.00;1.00;;;;;;;;5092834;28;8913;-70
2023/03/13 14:41:24;;;;;;;;;2.00;1.00;;;;;;;;5094525;27;8763;-70
2023/03/13 14:43:49;;;;;;;;;1.00;1.00;;;;;;;;5113484;27;9352;-70
2023/03/13 14:46:26;;;;;;;;;2.00;0.67;;;;;;;;5113118;28;9359;-70
2023/03/13 14:48:53;;;;;;;;;0.00;0.00;;;;;;;;5112972;27;8807;-69
2023/03/13 14:51:22;;;;;;;;;1.00;1.00;;;;;;;;5112979;27;9385;-69
2023/03/13 14:53:54;;;;;;;;;1.67;1.67;;;;;;;;5113517;27;9327;-69
2023/03/13 14:56:19;;;;;;;;;0.33;0.33;;;;;;;;5113113;27;9329;-69
2023/03/13 14:58:45;;;;;;;;;1.67;0.33;;;;;;;;5113175;27;9333;-69
2023/03/13 15:01:29;;;;;;;;;1.67;1.00;;;;;;;;5111451;27;8919;-70
2023/03/13 15:03:54;;;;;;;;;2.00;1.00;;;;;;;;5113119;27;8889;-70
2023/03/13 15:06:21;;;;;;;;;1.00;1.00;;;;;;;;5111758;28;9268;-70